createdAt,value
2023-04-18T00:01:53.898Z,39.16
2023-04-18T00:04:20.963Z,39.20
2023-04-18T00:06:48.218Z,39.32
2023-04-18T00:09:15.346Z,39.27
2023-04-18T00:11:42.222Z,39.48
2023-04-18T00:14:09.074Z,38.85
2023-04-18T00:16:36.007Z,39.02
2023-04-18T00:19:02.830Z,39.38
2023-04-18T00:21:32.432Z,39.31
2023-04-18T00:23:59.236Z,39.14
2023-04-18T00:26:26.644Z,39.35
2023-04-18T00:28:53.417Z,39.09
2023-04-18T00:31:20.226Z,39.54
2023-04-18T00:33:46.911Z,39.42
2023-04-18T00:36:13.630Z,39.31
2023-04-18T00:38:40.566Z,39.38
2023-04-18T00:41:07.276Z,38.99
2023-04-18T00:43:34.096Z,39.07
2023-04-18T00:46:01.279Z,39.50
2023-04-18T00:48:28.134Z,39.21
2023-04-18T00:50:57.863Z,39.21
2023-04-18T00:53:24.748Z,38.89
2023-04-18T00:55:51.514Z,38.81
2023-04-18T00:58:18.302Z,38.97
2023-04-18T01:00:45.070Z,39.32
2023-04-18T01:03:11.927Z,39.03
2023-04-18T01:05:38.884Z,39.19
2023-04-18T01:08:05.639Z,38.81
2023-04-18T01:10:32.494Z,38.82
2023-04-18T01:13:18.386Z,38.71
2023-04-18T01:15:46.675Z,38.88
2023-04-18T01:18:13.860Z,39.02
2023-04-18T01:20:42.164Z,39.01
2023-04-18T01:23:08.938Z,39.00
2023-04-18T01:25:35.817Z,38.73
2023-04-18T01:28:02.624Z,38.67
2023-04-18T01:30:29.423Z,38.61
2023-04-18T01:32:56.202Z,39.05
2023-04-18T01:35:23.124Z,39.17
2023-04-18T01:37:49.885Z,39.26
2023-04-18T01:40:16.817Z,39.10
2023-04-18T01:42:43.547Z,38.60
2023-04-18T01:45:11.539Z,39.07
2023-04-18T01:47:38.472Z,38.81
2023-04-18T01:50:06.072Z,39.18
2023-04-18T01:52:32.861Z,39.07
2023-04-18T01:54:59.580Z,39.33
2023-04-18T01:57:26.441Z,38.85
2023-04-18T01:59:53.176Z,39.02
2023-04-18T02:02:20.218Z,38.85
2023-04-18T02:04:47.091Z,38.71
2023-04-18T02:07:13.819Z,38.64
2023-04-18T02:09:45.915Z,38.73
2023-04-18T02:12:12.672Z,38.99
2023-04-18T02:14:39.414Z,38.86
2023-04-18T02:17:06.459Z,38.75
2023-04-18T02:19:33.266Z,38.69
2023-04-18T02:22:00.188Z,39.29
2023-04-18T02:24:27.043Z,39.00
2023-04-18T02:26:56.587Z,38.87
2023-04-18T02:29:26.162Z,38.95
2023-04-18T02:31:52.998Z,39.19
2023-04-18T02:34:19.769Z,39.10
2023-04-18T02:36:46.792Z,38.51
2023-04-18T02:39:13.640Z,38.78
2023-04-18T02:41:40.496Z,39.16
2023-04-18T02:44:08.370Z,38.89
2023-04-18T02:46:35.186Z,39.14
2023-04-18T02:49:01.943Z,38.98
2023-04-18T02:51:32.175Z,39.31
2023-04-18T02:53:58.977Z,39.01
2023-04-18T02:56:25.748Z,38.90
2023-04-18T02:58:52.499Z,38.70
2023-04-18T03:01:19.301Z,39.07
2023-04-18T03:03:46.109Z,39.25
2023-04-18T03:06:12.826Z,38.51
2023-04-18T03:08:41.409Z,39.10
2023-04-18T03:11:08.133Z,38.66
2023-04-18T03:13:35.078Z,38.57
2023-04-18T03:16:01.982Z,38.76
2023-04-18T03:18:28.903Z,39.04
2023-04-18T03:20:55.657Z,38.85
2023-04-18T03:23:25.510Z,38.95
2023-04-18T03:25:54.748Z,39.13
2023-04-18T03:28:21.609Z,38.79
2023-04-18T03:30:48.532Z,38.58
2023-04-18T03:33:15.230Z,39.28
2023-04-18T03:35:42.019Z,38.84
2023-04-18T03:38:08.767Z,39.09
2023-04-18T03:40:35.598Z,39.15
2023-04-18T03:43:02.335Z,39.05
2023-04-18T03:45:29.128Z,38.88
2023-04-18T03:47:55.921Z,39.22
2023-04-18T03:50:22.638Z,39.03
2023-04-18T03:52:49.452Z,38.95
2023-04-18T03:55:16.232Z,38.79
2023-04-18T03:57:42.951Z,38.89
2023-04-18T04:00:10.291Z,38.82
2023-04-18T04:02:39.475Z,38.76
2023-04-18T04:05:06.712Z,38.50
2023-04-18T04:07:33.734Z,39.01
2023-04-18T04:10:00.601Z,38.67
2023-04-18T04:12:28.852Z,39.16
2023-04-18T04:14:55.755Z,38.64
2023-04-18T04:17:22.583Z,38.99
2023-04-18T04:19:49.605Z,39.14
2023-04-18T04:22:16.348Z,39.00
2023-04-18T04:24:43.586Z,38.78
2023-04-18T04:27:10.507Z,39.05
2023-04-18T04:29:37.388Z,38.85
2023-04-18T04:32:04.341Z,38.87
2023-04-18T04:34:31.162Z,38.79
2023-04-18T04:36:57.988Z,39.23
2023-04-18T04:39:27.228Z,38.88
2023-04-18T04:41:54.037Z,38.95
2023-04-18T04:44:20.894Z,38.89
2023-04-18T04:46:47.805Z,38.39
2023-04-18T04:49:14.640Z,38.83
2023-04-18T04:51:41.435Z,38.55
2023-04-18T04:54:08.230Z,38.96
2023-04-18T04:56:35.011Z,38.79
2023-04-18T04:59:01.729Z,38.95
2023-04-18T05:01:28.575Z,38.85
2023-04-18T05:03:55.529Z,38.74
2023-04-18T05:06:22.308Z,38.52
2023-04-18T05:08:49.377Z,38.75
2023-04-18T05:11:16.516Z,38.62
2023-04-18T05:13:43.476Z,38.73
2023-04-18T05:16:10.355Z,39.03
2023-04-18T05:18:37.140Z,38.77
2023-04-18T05:21:04.031Z,39.09
2023-04-18T05:23:30.704Z,38.49
2023-04-18T05:25:57.477Z,38.82
2023-04-18T05:28:25.697Z,38.60
2023-04-18T05:30:52.474Z,39.01
2023-04-18T05:33:19.327Z,39.23
2023-04-18T05:35:46.044Z,38.52
2023-04-18T05:38:12.794Z,39.38
2023-04-18T05:40:39.637Z,38.87
2023-04-18T05:43:06.412Z,38.92
2023-04-18T05:45:33.154Z,38.90
2023-04-18T05:48:00.026Z,38.92
2023-04-18T05:50:26.881Z,39.09
2023-04-18T05:52:53.698Z,40.20
2023-04-18T05:55:20.547Z,41.60
2023-04-18T05:57:47.244Z,41.56
2023-04-18T06:00:14.624Z,41.56
2023-04-18T06:02:41.574Z,41.34
2023-04-18T06:05:09.293Z,41.32
2023-04-18T06:07:36.109Z,42.91
2023-04-18T06:10:02.978Z,42.85
2023-04-18T06:12:29.698Z,42.40
2023-04-18T06:14:56.478Z,43.94
2023-04-18T06:17:25.942Z,43.28
2023-04-18T06:19:52.741Z,44.19
2023-04-18T06:22:19.510Z,44.63
2023-04-18T06:24:46.451Z,43.73
2023-04-18T06:27:27.984Z,44.97
2023-04-18T06:29:58.160Z,45.18
2023-04-18T06:32:24.934Z,45.14
2023-04-18T06:34:54.169Z,46.11
2023-04-18T06:37:22.103Z,45.37
2023-04-18T06:39:48.850Z,45.59
2023-04-18T06:42:15.725Z,45.39
2023-04-18T06:44:42.510Z,45.61
2023-04-18T06:47:09.643Z,45.38
2023-04-18T06:49:36.478Z,45.39
2023-04-18T06:52:03.372Z,45.08
2023-04-18T06:54:30.116Z,44.90
2023-04-18T06:56:56.863Z,44.85
2023-04-18T06:59:23.622Z,44.52
2023-04-18T07:01:51.000Z,43.83
2023-04-18T07:04:18.146Z,43.37
2023-04-18T07:06:45.496Z,43.83
2023-04-18T07:09:12.196Z,43.58
2023-04-18T07:11:38.899Z,43.72
2023-04-18T07:14:05.625Z,43.27
2023-04-18T07:16:32.381Z,41.68
2023-04-18T07:19:02.269Z,42.77
2023-04-18T07:21:28.976Z,42.10
2023-04-18T07:26:22.263Z,42.16
2023-04-18T07:28:49.140Z,41.57
2023-04-18T07:31:15.938Z,41.23
2023-04-18T07:33:42.706Z,41.23
2023-04-18T07:36:09.474Z,40.73
2023-04-18T07:38:36.320Z,41.24
2023-04-18T07:41:03.087Z,41.10
2023-04-18T07:43:33.903Z,40.79
2023-04-18T07:46:00.721Z,41.12
2023-04-18T07:48:27.531Z,40.51
2023-04-18T07:50:54.244Z,40.90
2023-04-18T07:53:20.980Z,40.51
2023-04-18T07:55:47.718Z,40.51
2023-04-18T07:58:14.435Z,40.25
2023-04-18T08:00:42.324Z,40.03
2023-04-18T08:03:09.735Z,40.09
2023-04-18T08:05:36.913Z,39.80
2023-04-18T08:08:03.953Z,39.66
2023-04-18T08:10:30.768Z,39.99
2023-04-18T08:12:58.813Z,39.62
2023-04-18T08:15:25.769Z,39.32
2023-04-18T08:17:52.615Z,39.54
2023-04-18T08:20:21.230Z,39.14
2023-04-18T08:23:05.233Z,39.49
2023-04-18T08:25:34.571Z,39.67
2023-04-18T08:28:01.338Z,39.87
2023-04-18T08:30:28.291Z,39.44
2023-04-18T08:32:55.089Z,39.22
2023-04-18T08:35:21.916Z,39.74
2023-04-18T08:37:48.754Z,39.32
2023-04-18T08:40:15.618Z,39.55
2023-04-18T08:42:43.019Z,39.32
2023-04-18T08:45:10.163Z,38.97
2023-04-18T08:47:37.127Z,39.66
2023-04-18T08:50:04.705Z,39.64
2023-04-18T08:52:31.621Z,39.81
2023-04-18T08:54:58.379Z,40.28
2023-04-18T08:57:25.108Z,39.74
2023-04-18T08:59:51.848Z,40.14
2023-04-18T09:02:18.651Z,39.77
2023-04-18T09:04:46.444Z,40.13
2023-04-18T09:07:14.553Z,39.86
2023-04-18T09:09:44.975Z,39.69
2023-04-18T09:12:12.306Z,39.75
2023-04-18T09:14:39.085Z,39.24
2023-04-18T09:17:05.816Z,39.08
2023-04-18T09:19:32.606Z,39.38
2023-04-18T09:22:00.334Z,39.03
2023-04-18T09:24:27.265Z,39.54
2023-04-18T09:26:54.543Z,38.85
2023-04-18T09:29:21.933Z,39.10
2023-04-18T09:32:01.175Z,39.03
2023-04-18T09:34:28.787Z,38.91
2023-04-18T09:37:12.284Z,38.88
2023-04-18T09:39:40.131Z,38.79
2023-04-18T09:42:06.944Z,38.85
2023-04-18T09:44:33.746Z,39.12
2023-04-18T09:47:01.095Z,39.47
2023-04-18T09:49:28.180Z,39.56
2023-04-18T09:51:55.496Z,39.53
2023-04-18T09:54:25.411Z,39.20
2023-04-18T09:56:52.547Z,39.43
2023-04-18T09:59:33.214Z,39.34
2023-04-18T10:02:01.950Z,39.13
2023-04-18T10:04:28.849Z,39.49
2023-04-18T10:06:55.731Z,39.37
2023-04-18T10:09:22.544Z,39.73
2023-04-18T10:11:49.365Z,39.62
2023-04-18T10:14:16.525Z,39.47
2023-04-18T10:16:43.771Z,39.52
2023-04-18T10:19:26.786Z,39.34
2023-04-18T10:21:58.058Z,39.62
2023-04-18T10:24:46.357Z,39.81
2023-04-18T10:27:13.205Z,39.17
2023-04-18T10:29:50.042Z,39.11
2023-04-18T10:32:18.165Z,39.21
2023-04-18T10:34:46.605Z,39.37
2023-04-18T10:37:13.478Z,39.61
2023-04-18T10:40:07.113Z,39.24
2023-04-18T10:42:45.675Z,39.63
2023-04-18T10:45:25.015Z,39.36
2023-04-18T10:47:54.206Z,39.17
2023-04-18T10:50:20.998Z,39.94
2023-04-18T10:52:47.840Z,39.77
2023-04-18T10:55:18.984Z,39.69
2023-04-18T10:57:47.733Z,40.26
2023-04-18T11:00:16.731Z,39.93
2023-04-18T11:02:51.461Z,40.41
2023-04-18T11:05:28.439Z,39.95
2023-04-18T11:07:55.452Z,39.85
2023-04-18T11:10:23.568Z,40.08
2023-04-18T11:12:50.974Z,40.48
2023-04-18T11:15:24.258Z,40.47
2023-04-18T11:17:58.871Z,40.37
2023-04-18T11:20:25.834Z,40.81
2023-04-18T11:22:57.733Z,40.21
2023-04-18T11:25:29.173Z,40.24
2023-04-18T11:28:00.738Z,40.58
2023-04-18T11:30:28.019Z,40.38
2023-04-18T11:32:54.812Z,40.70
2023-04-18T11:35:21.625Z,40.30
2023-04-18T11:37:48.418Z,40.32
2023-04-18T11:40:15.237Z,40.18
2023-04-18T11:42:42.121Z,40.10
2023-04-18T11:45:12.822Z,40.35
2023-04-18T11:47:40.006Z,40.33
2023-04-18T11:50:07.793Z,40.06
2023-04-18T11:52:35.116Z,40.48
2023-04-18T11:55:15.526Z,40.46
2023-04-18T11:57:42.539Z,40.19
2023-04-18T12:00:10.058Z,40.29
2023-04-18T12:02:46.537Z,40.60
2023-04-18T12:05:24.437Z,40.51
2023-04-18T12:07:51.301Z,39.99
2023-04-18T12:10:20.964Z,40.61
2023-04-18T12:12:48.547Z,40.17
2023-04-18T12:15:15.959Z,40.25
2023-04-18T12:17:46.598Z,40.24
2023-04-18T12:20:13.845Z,40.16
2023-04-18T12:22:45.147Z,40.15
2023-04-18T12:25:26.947Z,39.91
2023-04-18T12:28:15.472Z,39.92
2023-04-18T12:30:42.541Z,40.41
2023-04-18T12:33:09.289Z,39.70
2023-04-18T12:35:36.092Z,39.94
2023-04-18T12:38:03.074Z,39.88
2023-04-18T12:40:30.103Z,39.89
2023-04-18T12:42:56.812Z,39.76
2023-04-18T12:45:23.835Z,39.69
2023-04-18T12:47:51.300Z,39.91
2023-04-18T12:50:22.548Z,39.75
2023-04-18T12:52:50.588Z,39.51
2023-04-18T12:55:17.468Z,39.17
2023-04-18T12:57:44.209Z,39.35
2023-04-18T13:00:11.513Z,39.01
2023-04-18T13:02:40.044Z,39.41
2023-04-18T13:05:08.096Z,39.35
2023-04-18T13:07:35.051Z,38.81
2023-04-18T13:10:01.827Z,38.90
2023-04-18T13:12:28.532Z,38.81
2023-04-18T13:14:55.352Z,39.47
2023-04-18T13:17:22.236Z,39.74
2023-04-18T13:19:49.182Z,39.34
2023-04-18T13:22:16.978Z,39.01
2023-04-18T13:24:43.707Z,39.22
2023-04-18T13:27:10.439Z,39.58
2023-04-18T13:29:38.542Z,38.83
2023-04-18T13:32:05.965Z,38.82
2023-04-18T13:34:38.615Z,39.11
2023-04-18T13:37:05.948Z,38.58
2023-04-18T13:39:32.980Z,38.29
2023-04-18T13:41:59.839Z,38.16
2023-04-18T13:44:26.718Z,38.57
2023-04-18T13:46:53.563Z,38.63
2023-04-18T13:49:20.387Z,38.32
2023-04-18T13:51:47.228Z,38.57
2023-04-18T13:54:15.149Z,38.69
2023-04-18T13:56:42.296Z,39.10
2023-04-18T13:59:08.997Z,39.31
2023-04-18T14:01:38.637Z,38.46
2023-04-18T14:04:05.734Z,38.40
2023-04-18T14:06:32.599Z,38.29
2023-04-18T14:08:59.397Z,38.68
2023-04-18T14:11:26.200Z,38.67
2023-04-18T14:13:53.001Z,38.35
2023-04-18T14:16:19.815Z,38.36
2023-04-18T14:18:46.662Z,37.97
2023-04-18T14:21:13.465Z,37.97
2023-04-18T14:23:40.323Z,37.87
2023-04-18T14:26:07.354Z,37.83
2023-04-18T14:28:34.082Z,37.42
2023-04-18T14:31:00.927Z,37.56
2023-04-18T14:33:27.796Z,38.10
2023-04-18T14:35:54.875Z,38.07
2023-04-18T14:38:21.608Z,38.13
2023-04-18T14:40:48.342Z,37.93
2023-04-18T14:43:15.122Z,38.33
2023-04-18T14:45:41.839Z,37.66
2023-04-18T14:48:10.184Z,37.47
2023-04-18T14:50:37.294Z,37.77
2023-04-18T14:53:04.926Z,37.36
2023-04-18T14:55:32.442Z,37.50
2023-04-18T14:57:59.175Z,37.04
2023-04-18T15:00:26.097Z,36.93
2023-04-18T15:02:53.258Z,36.63
2023-04-18T15:05:20.737Z,36.41
2023-04-18T15:07:47.551Z,36.24
2023-04-18T15:10:14.363Z,35.96
2023-04-18T15:12:41.237Z,36.03
2023-04-18T15:15:08.869Z,36.23
2023-04-18T15:17:35.682Z,35.92
2023-04-18T15:20:02.689Z,35.50
2023-04-18T15:22:31.741Z,35.87
2023-04-18T15:24:58.489Z,35.55
2023-04-18T15:27:25.232Z,35.09
2023-04-18T15:29:52.437Z,34.91
2023-04-18T15:32:19.200Z,34.79
2023-04-18T15:34:46.054Z,34.27
2023-04-18T15:37:12.840Z,34.17
2023-04-18T15:39:39.631Z,33.55
2023-04-18T15:42:06.491Z,33.71
2023-04-18T15:44:34.540Z,33.64
2023-04-18T15:47:04.202Z,33.31
2023-04-18T15:49:30.896Z,32.82
2023-04-18T15:51:57.703Z,31.96
2023-04-18T15:54:24.402Z,31.23
2023-04-18T15:56:51.194Z,30.78
2023-04-18T15:59:17.863Z,29.38
2023-04-18T16:01:45.853Z,28.28
2023-04-18T16:04:13.216Z,26.79
2023-04-18T16:06:40.315Z,25.42
2023-04-18T16:09:07.055Z,25.08
2023-04-18T16:11:33.778Z,24.65
2023-04-18T16:14:00.520Z,23.74
2023-04-18T16:16:27.325Z,23.45
2023-04-18T16:18:54.159Z,23.25
2023-04-18T16:21:20.918Z,22.89
2023-04-18T16:23:48.319Z,22.87
2023-04-18T16:26:15.197Z,22.87
2023-04-18T16:28:41.953Z,23.16
2023-04-18T16:31:08.843Z,22.76
2023-04-18T16:33:35.635Z,23.69
2023-04-18T16:36:02.542Z,28.42
2023-04-18T16:38:29.354Z,31.14
2023-04-18T16:40:56.420Z,32.34
2023-04-18T16:43:23.922Z,33.00
2023-04-18T16:45:54.454Z,33.97
2023-04-18T16:48:21.157Z,34.05
2023-04-18T16:50:48.006Z,31.80
2023-04-18T16:53:14.690Z,31.49
2023-04-18T16:55:41.422Z,33.06
2023-04-18T16:58:08.377Z,33.23
2023-04-18T17:00:38.391Z,33.68
2023-04-18T17:03:05.456Z,34.41
2023-04-18T17:05:32.888Z,35.43
2023-04-18T17:08:00.364Z,34.72
2023-04-18T17:10:29.262Z,33.70
2023-04-18T17:12:56.112Z,33.31
2023-04-18T17:15:23.017Z,31.86
2023-04-18T17:17:49.989Z,30.13
2023-04-18T17:20:16.829Z,30.57
2023-04-18T17:22:46.090Z,29.51
2023-04-18T17:25:12.797Z,31.32
2023-04-18T17:27:39.854Z,33.15
2023-04-18T17:30:12.688Z,34.84
2023-04-18T17:32:39.454Z,35.52
2023-04-18T17:35:06.530Z,35.57
2023-04-18T17:37:33.350Z,35.88
2023-04-18T17:40:00.160Z,36.50
2023-04-18T17:42:27.117Z,36.44
2023-04-18T17:44:53.915Z,36.94
2023-04-18T17:47:20.683Z,37.07
2023-04-18T17:49:47.621Z,36.98
2023-04-18T17:52:14.329Z,37.08
2023-04-18T17:54:41.149Z,37.41
2023-04-18T17:57:07.981Z,37.59
2023-04-18T17:59:35.012Z,37.75
2023-04-18T18:02:01.822Z,37.85
2023-04-18T18:04:28.694Z,37.86
2023-04-18T18:06:56.042Z,38.04
2023-04-18T18:09:22.842Z,38.10
2023-04-18T18:11:49.545Z,38.09
2023-04-18T18:14:16.330Z,38.29
2023-04-18T18:16:43.811Z,38.20
2023-04-18T18:19:10.908Z,38.63
2023-04-18T18:21:37.718Z,38.37
2023-04-18T18:24:04.701Z,38.32
2023-04-18T18:26:31.476Z,39.01
2023-04-18T18:28:58.259Z,38.86
2023-04-18T18:31:25.112Z,38.37
2023-04-18T18:33:54.952Z,38.95
2023-04-18T18:36:21.672Z,39.26
2023-04-18T18:38:48.417Z,38.51
2023-04-18T18:41:15.124Z,38.81
2023-04-18T18:43:41.850Z,38.53
2023-04-18T18:46:11.329Z,38.62
2023-04-18T18:48:38.326Z,39.33
2023-04-18T18:51:05.107Z,39.68
2023-04-18T18:53:31.862Z,39.92
2023-04-18T18:55:58.671Z,40.02
2023-04-18T18:58:25.537Z,40.06
2023-04-18T19:00:52.316Z,41.13
2023-04-18T19:03:21.031Z,41.14
2023-04-18T19:05:48.003Z,41.92
2023-04-18T19:08:14.805Z,42.64
2023-04-18T19:10:41.771Z,42.02
2023-04-18T19:13:08.833Z,42.38
2023-04-18T19:15:35.623Z,42.56
2023-04-18T19:18:02.396Z,42.52
2023-04-18T19:20:29.322Z,42.89
2023-04-18T19:22:56.203Z,42.63
2023-04-18T19:25:23.069Z,42.85
2023-04-18T19:27:49.864Z,43.05
2023-04-18T19:30:19.190Z,42.86
2023-04-18T19:32:45.972Z,42.84
2023-04-18T19:35:12.682Z,42.44
2023-04-18T19:37:39.480Z,43.02
2023-04-18T19:40:06.796Z,42.59
2023-04-18T19:42:33.508Z,42.96
2023-04-18T19:45:00.325Z,43.17
2023-04-18T19:47:27.189Z,42.95
2023-04-18T19:49:58.065Z,43.38
2023-04-18T19:52:24.736Z,43.06
2023-04-18T19:54:52.736Z,42.80
2023-04-18T19:57:19.388Z,42.97
2023-04-18T19:59:46.239Z,42.95
2023-04-18T20:02:12.978Z,43.19
2023-04-18T20:04:39.887Z,43.23
2023-04-18T20:07:06.697Z,43.28
2023-04-18T20:09:33.411Z,42.99
2023-04-18T20:12:00.161Z,43.35
2023-04-18T20:14:27.740Z,43.62
2023-04-18T20:16:55.029Z,43.21
2023-04-18T20:19:22.525Z,43.78
2023-04-18T20:21:49.193Z,43.22
2023-04-18T20:24:16.022Z,43.28
2023-04-18T20:26:42.830Z,43.35
2023-04-18T20:29:09.640Z,43.39
2023-04-18T20:31:36.363Z,43.32
2023-04-18T20:34:03.106Z,43.55
2023-04-18T20:36:29.894Z,43.46
2023-04-18T20:38:56.670Z,43.55
2023-04-18T20:41:23.507Z,43.27
2023-04-18T20:43:50.207Z,43.44
2023-04-18T20:46:17.017Z,43.98
2023-04-18T20:48:43.824Z,43.68
2023-04-18T20:51:10.753Z,43.42
2023-04-18T20:53:37.510Z,43.57
2023-04-18T20:56:04.368Z,43.71
2023-04-18T20:58:31.146Z,43.49
2023-04-18T21:00:58.033Z,44.08
2023-04-18T21:03:25.111Z,43.92
2023-04-18T21:05:52.372Z,43.75
2023-04-18T21:08:19.082Z,43.93
2023-04-18T21:10:45.811Z,43.46
2023-04-18T21:13:12.620Z,44.11
2023-04-18T21:15:40.982Z,43.63
2023-04-18T21:18:07.798Z,43.81
2023-04-18T21:20:34.596Z,43.63
2023-04-18T21:23:04.216Z,43.81
2023-04-18T21:25:30.946Z,43.81
2023-04-18T21:27:57.728Z,43.53
2023-04-18T21:30:24.560Z,43.49
2023-04-18T21:32:51.314Z,43.81
2023-04-18T21:35:20.138Z,43.69
2023-04-18T21:37:48.167Z,43.75
2023-04-18T21:40:15.006Z,43.86
2023-04-18T21:42:41.832Z,43.79
2023-04-18T21:45:09.684Z,44.13
2023-04-18T21:47:36.504Z,44.13
2023-04-18T21:50:03.730Z,44.09
2023-04-18T21:52:30.494Z,44.11
2023-04-18T21:54:57.331Z,43.78
2023-04-18T21:57:24.166Z,43.82
2023-04-18T21:59:50.908Z,43.98
2023-04-18T22:02:17.711Z,44.22
2023-04-18T22:04:44.574Z,43.89
2023-04-18T22:07:11.367Z,44.26
2023-04-18T22:09:38.212Z,43.95
2023-04-18T22:12:05.223Z,44.15
2023-04-18T22:14:32.103Z,43.60
2023-04-18T22:16:59.202Z,44.26
2023-04-18T22:19:26.097Z,43.78
2023-04-18T22:21:52.819Z,43.75
2023-04-18T22:24:19.562Z,43.55
2023-04-18T22:26:46.356Z,43.74
2023-04-18T22:29:13.237Z,43.72
2023-04-18T22:31:39.969Z,44.24
2023-04-18T22:34:06.728Z,43.80
2023-04-18T22:36:33.535Z,44.16
2023-04-18T22:39:00.371Z,43.76
2023-04-18T22:41:27.096Z,44.15
2023-04-18T22:43:53.859Z,43.53
2023-04-18T22:46:20.842Z,44.24
2023-04-18T22:48:47.673Z,44.09
2023-04-18T22:51:14.389Z,43.76
2023-04-18T22:53:41.124Z,44.23
2023-04-18T22:56:08.007Z,43.90
2023-04-18T22:58:34.777Z,43.63
2023-04-18T23:01:01.489Z,43.63
2023-04-18T23:03:28.456Z,44.13
2023-04-18T23:05:55.212Z,44.00
2023-04-18T23:08:21.976Z,44.01
2023-04-18T23:10:48.780Z,44.11
2023-04-18T23:13:15.578Z,43.91
2023-04-18T23:15:42.420Z,43.65
2023-04-18T23:18:09.244Z,43.71
2023-04-18T23:20:36.024Z,44.16
2023-04-18T23:23:02.760Z,43.65
2023-04-18T23:25:32.150Z,44.22
2023-04-18T23:27:59.074Z,43.61
2023-04-18T23:30:26.146Z,44.18
2023-04-18T23:32:52.932Z,43.66
2023-04-18T23:35:19.681Z,43.98
2023-04-18T23:37:46.484Z,43.55
2023-04-18T23:40:13.314Z,43.94
2023-04-18T23:42:40.063Z,44.07
2023-04-18T23:45:07.307Z,43.99
2023-04-18T23:47:39.148Z,44.07
2023-04-18T23:50:06.466Z,44.19
2023-04-18T23:52:33.346Z,43.50
2023-04-18T23:55:00.811Z,43.85
2023-04-18T23:57:27.687Z,44.05
2023-04-18T23:59:54.522Z,43.63
